Time;durP1;ratioP1;P1;durP2;ratioP2;P2;SDS_P1;SDS_P2;PMS_P1;PMS_P2;Temp;Humidity;BMP_temperature;BMP_pressure;BME280_temperature;BME280_humidity;BME280_pressure;Samples;Min_cycle;Max_cycle;Signal;HPM_P1;HPM_P2
2021/01/23 05:54:20;;;;;;;69.28;27.77;;;;;;;-1.28;100.00;99796.19;2590281;47;20131;-65
2021/01/23 05:56:49;;;;;;;76.93;33.35;;;;;;;-1.25;100.00;99795.22;2583307;55;20135;-66
2021/01/23 05:59:16;;;;;;;66.32;31.27;;;;;;;-1.20;100.00;99813.34;2585555;55;20128;-67
2021/01/23 06:01:44;;;;;;;74.75;30.27;;;;;;;-1.17;100.00;99803.59;2581555;55;20657;-66
2021/01/23 06:04:14;;;;;;;61.80;24.15;;;;;;;-1.08;100.00;99814.62;2583612;55;20627;-66
2021/01/23 06:06:46;;;;;;;75.47;30.42;;;;;;;-1.08;100.00;99812.84;2581084;55;20529;-66
2021/01/23 06:09:32;;;;;;;;;;;;;;;-0.98;100.00;99808.06;2582532;55;20121;-66
2021/01/23 06:12:00;;;;;;;68.68;26.92;;;;;;;-1.00;100.00;99809.91;2582964;55;20406;-66
2021/01/23 06:14:35;;;;;;;74.45;30.17;;;;;;;-0.95;100.00;99817.56;2583498;55;20117;-67
2021/01/23 06:17:04;;;;;;;69.22;22.40;;;;;;;-0.94;100.00;99819.28;2582999;55;20170;-67
2021/01/23 06:19:40;;;;;;;62.83;27.92;;;;;;;-0.90;100.00;99820.84;2582861;55;20138;-67
2021/01/23 06:22:08;;;;;;;70.97;29.65;;;;;;;-0.89;100.00;99827.81;2584111;55;20155;-68
2021/01/23 06:24:53;;;;;;;68.60;30.12;;;;;;;-0.82;100.00;99825.78;2583275;55;20604;-68
2021/01/23 06:27:40;;;;;;;63.15;26.17;;;;;;;-0.85;100.00;99818.91;2581302;55;20112;-66
2021/01/23 06:30:32;;;;;;;65.75;27.52;;;;;;;-0.79;100.00;99821.28;2573408;55;20129;-66
2021/01/23 06:33:00;;;;;;;63.67;25.65;;;;;;;-0.82;100.00;99824.00;2580736;55;20098;-67
2021/01/23 06:35:27;;;;;;;52.58;25.17;;;;;;;-0.87;100.00;99820.75;2580583;55;20128;-67
2021/01/23 06:38:13;;;;;;;47.88;23.98;;;;;;;-0.78;100.00;99819.47;2580401;55;20464;-67
2021/01/23 06:40:41;;;;;;;58.65;24.83;;;;;;;-0.83;100.00;99827.53;2581006;55;20120;-67
2021/01/23 06:43:09;;;;;;;61.42;25.80;;;;;;;-0.84;100.00;99823.22;2581359;55;20490;-67
2021/01/23 06:45:38;;;;;;;64.53;26.00;;;;;;;-0.83;100.00;99830.16;2581164;55;20121;-67
2021/01/23 06:48:07;;;;;;;51.03;22.05;;;;;;;-0.78;100.00;99837.81;2581090;55;20619;-66
2021/01/23 06:50:36;;;;;;;63.90;26.48;;;;;;;-0.80;100.00;99830.06;2576194;55;20112;-66
2021/01/23 06:53:05;;;;;;;59.85;23.55;;;;;;;-0.79;100.00;99837.00;2581041;55;20124;-67
2021/01/23 06:55:44;;;;;;;60.17;24.92;;;;;;;-0.77;100.00;99831.66;2580877;55;20124;-66
2021/01/23 06:58:23;;;;;;;55.70;24.23;;;;;;;-0.75;100.00;99835.06;2581882;55;20119;-66
2021/01/23 07:00:53;;;;;;;44.83;19.77;;;;;;;-0.72;100.00;99850.69;2581411;55;20109;-67
2021/01/23 07:03:21;;;;;;;55.12;24.40;;;;;;;-0.73;100.00;99839.31;2581548;55;20639;-67
2021/01/23 07:05:54;;;;;;;59.50;24.27;;;;;;;-0.69;100.00;99849.69;2577493;55;20182;-66
2021/01/23 07:08:28;;;;;;;61.85;26.92;;;;;;;-0.67;100.00;99858.34;2575544;55;20123;-66
2021/01/23 07:11:15;;;;;;;59.97;26.55;;;;;;;-0.63;100.00;99857.28;2577722;55;20124;-67
2021/01/23 07:13:59;;;;;;;66.50;27.67;;;;;;;-0.63;100.00;99855.53;2577112;55;20133;-66
2021/01/23 07:16:28;;;;;;;51.90;22.27;;;;;;;-0.62;100.00;99861.59;2572166;55;20516;-66
2021/01/23 07:18:57;;;;;;;59.28;26.50;;;;;;;-0.63;100.00;99862.53;2572240;55;20128;-67
2021/01/23 07:21:25;;;;;;;58.55;25.17;;;;;;;-0.66;100.00;99854.81;2572293;55;20132;-66
2021/01/23 07:23:54;;;;;;;55.55;24.08;;;;;;;-0.67;100.00;99866.19;2572411;55;20636;-67
2021/01/23 07:26:23;;;;;;;59.05;24.48;;;;;;;-0.72;100.00;99869.84;2572430;55;20140;-68
2021/01/23 07:28:52;;;;;;;55.12;24.02;;;;;;;-0.75;100.00;99856.87;2572556;55;20632;-68
2021/01/23 07:31:23;;;;;;;54.40;23.67;;;;;;;-0.67;100.00;99869.66;2572192;55;20727;-66
2021/01/23 07:33:52;;;;;;;52.97;24.05;;;;;;;-0.69;100.00;99868.03;2572678;55;20106;-66
2021/01/23 07:36:35;;;;;;;48.05;23.50;;;;;;;-0.65;100.00;99872.22;2572360;55;20178;-67
2021/01/23 07:39:06;;;;;;;49.47;22.75;;;;;;;-0.69;100.00;99875.91;2572329;55;20131;-66
2021/01/23 07:41:36;;;;;;;51.70;23.23;;;;;;;-0.69;100.00;99870.66;2572635;55;20124;-66
2021/01/23 07:44:06;;;;;;;45.83;22.13;;;;;;;-0.69;100.00;99870.66;2572508;55;20114;-66
2021/01/23 07:46:36;;;;;;;54.88;24.27;;;;;;;-0.68;100.00;99869.75;2571996;55;20117;-68
2021/01/23 07:49:04;;;;;;;50.78;24.33;;;;;;;-0.69;100.00;99875.91;2572670;55;20506;-67
2021/01/23 07:51:32;;;;;;;49.72;22.92;;;;;;;-0.68;100.00;99874.97;2572175;55;20123;-66
2021/01/23 07:54:07;;;;;;;44.13;22.40;;;;;;;-0.64;100.00;99873.91;2571946;55;20141;-68
2021/01/23 07:56:36;;;;;;;60.47;27.42;;;;;;;-0.67;100.00;99880.13;2572116;55;20129;-66
2021/01/23 07:59:04;;;;;;;52.75;24.25;;;;;;;-0.66;100.00;99878.37;2572466;55;20492;-67
2021/01/23 08:01:32;;;;;;;63.22;26.77;;;;;;;-0.67;100.00;99885.38;2572077;55;20116;-67
2021/01/23 08:04:00;;;;;;;54.67;25.00;;;;;;;-0.66;100.00;99883.62;2573033;55;20102;-67
2021/01/23 08:06:28;;;;;;;52.13;24.67;;;;;;;-0.65;100.00;99886.19;2572307;55;20630;-68
2021/01/23 08:08:55;;;;;;;56.53;25.73;;;;;;;-0.63;100.00;99892.22;2572501;55;20118;-66
2021/01/23 08:11:37;;;;;;;55.65;25.65;;;;;;;-0.57;100.00;99891.09;2572084;55;20233;-67
2021/01/23 08:14:13;;;;;;;56.22;25.42;;;;;;;-0.59;100.00;99885.06;2572466;55;20136;-68
2021/01/23 08:16:51;;;;;;;52.78;23.00;;;;;;;-0.59;100.00;99883.28;2571585;55;20135;-66
2021/01/23 08:19:20;;;;;;;51.50;22.65;;;;;;;-0.61;100.00;99889.50;2572302;55;20524;-67
2021/01/23 08:22:08;;;;;;;49.47;22.83;;;;;;;-0.58;100.00;99889.41;2572066;55;20121;-67
2021/01/23 08:24:35;;;;;;;59.30;24.80;;;;;;;-0.61;100.00;99895.63;2572171;55;20128;-67
2021/01/23 08:27:16;;;;;;;57.53;23.35;;;;;;;-0.56;100.00;99892.81;2572195;55;20140;-67
2021/01/23 08:29:45;;;;;;;53.28;22.73;;;;;;;-0.55;100.00;99899.75;2572269;55;20150;-66
2021/01/23 08:32:13;;;;;;;51.58;22.77;;;;;;;-0.56;100.00;99905.91;2572176;55;20124;-67
2021/01/23 08:34:43;;;;;;;65.55;26.55;;;;;;;-0.53;100.00;99908.38;2572256;55;20512;-67
2021/01/23 08:37:12;;;;;;;60.05;23.33;;;;;;;-0.52;100.00;99920.56;2571936;55;20121;-66
2021/01/23 08:39:44;;;;;;;56.20;25.05;;;;;;;-0.51;100.00;99922.28;2572348;55;20113;-66
2021/01/23 08:42:12;;;;;;;62.50;27.90;;;;;;;-0.50;100.00;99929.25;2572271;55;20636;-69
2021/01/23 08:44:40;;;;;;;68.20;27.98;;;;;;;-0.47;100.00;99929.09;2572107;55;20114;-68
2021/01/23 08:47:08;;;;;;;69.93;29.48;;;;;;;-0.44;100.00;99928.12;2572256;55;20113;-68
2021/01/23 08:49:36;;;;;;;66.75;26.95;;;;;;;-0.43;100.00;99941.16;2572316;55;20125;-68
2021/01/23 08:52:05;;;;;;;65.30;27.23;;;;;;;-0.42;100.00;99936.78;2571659;55;20661;-68
2021/01/23 08:54:32;;;;;;;66.00;28.17;;;;;;;-0.42;100.00;99937.63;2572303;55;20125;-66
2021/01/23 08:57:00;;;;;;;63.75;26.25;;;;;;;-0.37;100.00;99939.22;2571841;55;20118;-69
2021/01/23 08:59:28;;;;;;;67.80;26.35;;;;;;;-0.37;100.00;99944.44;2572049;55;20540;-69
2021/01/23 09:01:55;;;;;;;70.03;27.02;;;;;;;-0.37;100.00;99949.69;2572034;55;20102;-68
2021/01/23 09:04:23;;;;;;;61.47;26.98;;;;;;;-0.35;100.00;99953.09;2572323;55;20566;-69
2021/01/23 09:06:52;;;;;;;63.80;27.13;;;;;;;-0.34;100.00;99955.66;2572005;55;20120;-69
2021/01/23 09:09:21;;;;;;;62.92;27.95;;;;;;;-0.33;100.00;99961.75;2572208;55;20128;-69
2021/01/23 09:11:48;;;;;;;71.65;26.65;;;;;;;-0.33;100.00;99956.50;2572215;55;20097;-67
2021/01/23 09:14:17;;;;;;;63.92;27.60;;;;;;;-0.32;100.00;99960.81;2572103;55;20489;-67
2021/01/23 09:16:44;;;;;;;64.70;26.90;;;;;;;-0.31;100.00;99945.03;2572144;55;20109;-67
2021/01/23 09:19:12;;;;;;;64.12;26.30;;;;;;;-0.28;100.00;99954.56;2572058;55;20131;-66
2021/01/23 09:21:40;;;;;;;62.45;27.40;;;;;;;-0.28;100.00;99955.37;2571910;55;20118;-66
2021/01/23 09:24:10;;;;;;;64.50;26.90;;;;;;;-0.25;100.00;99959.66;2572325;55;20118;-66
2021/01/23 09:26:39;;;;;;;63.55;27.45;;;;;;;-0.24;100.00;99963.97;2571728;55;20173;-67
2021/01/23 09:29:07;;;;;;;70.05;28.05;;;;;;;-0.22;100.00;99964.75;2571856;55;20110;-69
2021/01/23 09:31:34;;;;;;;66.85;27.73;;;;;;;-0.19;100.00;99959.41;2572110;55;20106;-68
2021/01/23 09:34:02;;;;;;;63.30;29.08;;;;;;;-0.19;100.00;99964.66;2572364;55;20124;-69
2021/01/23 09:36:30;;;;;;;66.93;28.02;;;;;;;-0.16;100.00;99969.75;2571632;55;20135;-68
2021/01/23 09:38:58;;;;;;;57.60;27.02;;;;;;;-0.13;100.00;99973.16;2572191;55;20125;-68
2021/01/23 09:41:25;;;;;;;62.67;28.00;;;;;;;-0.09;100.00;99972.13;2571893;55;20500;-68
2021/01/23 09:43:54;;;;;;;59.28;26.95;;;;;;;-0.05;100.00;99981.56;2571861;55;20109;-68
2021/01/23 09:46:22;;;;;;;54.25;26.12;;;;;;;-0.01;100.00;99985.75;2572075;55;20117;-69
2021/01/23 09:48:50;;;;;;;55.95;26.50;;;;;;;0.01;100.00;99997.03;2572116;55;20133;-68
2021/01/23 09:51:18;;;;;;;64.05;27.75;;;;;;;0.01;100.00;99997.03;2571660;55;20122;-69
2021/01/23 09:53:45;;;;;;;57.42;27.83;;;;;;;0.02;100.00;99995.25;2571979;55;20504;-68
2021/01/23 09:56:13;;;;;;;63.05;28.40;;;;;;;0.05;100.00;100003.00;2571708;55;20122;-68
2021/01/23 09:58:41;;;;;;;50.33;26.92;;;;;;;0.03;100.00;100004.81;2571990;55;20109;-68
2021/01/23 10:01:09;;;;;;;58.92;26.42;;;;;;;0.04;100.00;100012.66;2571954;55;20125;-69
2021/01/23 10:03:37;;;;;;;65.75;28.45;;;;;;;0.03;100.00;100016.19;2571930;55;20122;-69
2021/01/23 10:06:05;;;;;;;50.97;26.62;;;;;;;0.04;100.00;100017.88;2572315;55;20117;-69
2021/01/23 10:08:32;;;;;;;54.47;25.52;;;;;;;0.02;100.00;100017.09;2577013;55;20148;-69
2021/01/23 10:11:00;;;;;;;53.42;25.65;;;;;;;0.01;100.00;100015.41;2574405;55;20094;-68
2021/01/23 10:13:28;;;;;;;53.90;27.58;;;;;;;0.02;100.00;100022.34;2575955;55;20123;-69
2021/01/23 10:15:55;;;;;;;53.65;24.95;;;;;;;0.05;100.00;100019.59;2576839;55;20122;-68
2021/01/23 10:18:24;;;;;;;56.63;25.17;;;;;;;0.08;100.00;100029.94;2577426;55;20170;-68
2021/01/23 10:20:52;;;;;;;60.25;25.30;;;;;;;0.05;100.00;100024.84;2576904;55;20517;-69
2021/01/23 10:23:19;;;;;;;56.53;24.83;;;;;;;0.06;100.00;100020.47;2577300;55;20121;-69
2021/01/23 10:25:47;;;;;;;54.58;27.52;;;;;;;0.08;100.00;100029.94;2577035;55;20114;-69
2021/01/23 10:28:15;;;;;;;57.35;25.05;;;;;;;0.12;100.00;100036.78;2577066;55;20639;-68
2021/01/23 10:30:42;;;;;;;57.70;26.55;;;;;;;0.09;100.00;100030.81;2576819;55;20159;-67
2021/01/23 10:33:10;;;;;;;63.03;26.02;;;;;;;0.12;100.00;100031.53;2577162;55;20516;-68
2021/01/23 10:35:38;;;;;;;61.88;26.75;;;;;;;0.10;100.00;100033.37;2576673;55;20132;-67
2021/01/23 10:38:06;;;;;;;62.47;26.25;;;;;;;0.12;100.00;100034.16;2576973;55;20102;-69
2021/01/23 10:40:34;;;;;;;54.10;27.10;;;;;;;0.13;100.00;100033.25;2577597;55;20109;-67
2021/01/23 10:43:01;;;;;;;55.12;25.95;;;;;;;0.15;100.00;100020.06;2577615;55;20516;-69
2021/01/23 10:45:29;;;;;;;53.97;24.77;;;;;;;0.11;100.00;100014.09;2577630;55;20540;-68
2021/01/23 10:47:57;;;;;;;56.65;26.08;;;;;;;0.20;100.00;100040.84;2577859;55;20722;-68
2021/01/23 10:50:25;;;;;;;57.88;23.65;;;;;;;0.21;100.00;100039.94;2577529;55;20115;-68
2021/01/23 10:52:53;;;;;;;57.35;24.25;;;;;;;0.22;100.00;100036.41;2577770;55;20620;-69
2021/01/23 10:55:21;;;;;;;57.30;26.40;;;;;;;0.21;100.00;100045.19;2578086;55;20638;-68
2021/01/23 10:57:48;;;;;;;57.40;25.92;;;;;;;0.21;100.00;100059.12;2577594;55;20147;-68
2021/01/23 11:00:17;;;;;;;60.08;26.48;;;;;;;0.23;100.00;100066.97;2577593;55;20128;-68
2021/01/23 11:02:45;;;;;;;60.12;25.37;;;;;;;0.25;100.00;100063.34;2577681;55;20485;-69
2021/01/23 11:05:13;;;;;;;55.88;25.48;;;;;;;0.25;100.00;100055.50;2577585;55;20151;-68
2021/01/23 11:07:40;;;;;;;62.62;27.10;;;;;;;0.26;100.00;100058.94;2577537;55;20235;-69
2021/01/23 11:10:11;;;;;;;54.10;24.77;;;;;;;0.31;100.00;100067.50;2577869;55;20105;-68
2021/01/23 11:12:38;;;;;;;57.92;24.58;;;;;;;0.30;100.00;100071.03;2576918;55;20123;-69
2021/01/23 11:15:07;;;;;;;56.28;24.23;;;;;;;0.34;100.00;100066.47;2577825;55;20102;-69
2021/01/23 11:17:36;;;;;;;52.03;24.98;;;;;;;0.31;100.00;100062.25;2577728;55;20113;-69
2021/01/23 11:20:05;;;;;;;56.45;24.30;;;;;;;0.32;100.00;100063.06;2577387;55;20117;-68
2021/01/23 11:22:33;;;;;;;67.93;28.33;;;;;;;0.31;100.00;100071.88;2577925;55;20109;-68
2021/01/23 11:25:00;;;;;;;57.83;26.50;;;;;;;0.34;100.00;100064.72;2577863;55;20118;-68
2021/01/23 11:27:29;;;;;;;61.22;27.17;;;;;;;0.35;100.00;100062.94;2577348;55;20121;-68
2021/01/23 11:29:56;;;;;;;64.07;26.52;;;;;;;0.33;100.00;100070.91;2577911;55;20124;-68
2021/01/23 11:32:24;;;;;;;59.17;27.58;;;;;;;0.29;100.00;100073.72;2577315;55;20125;-69
2021/01/23 11:34:52;;;;;;;57.33;28.12;;;;;;;0.29;100.00;100079.81;2577347;55;20113;-68
2021/01/23 11:37:20;;;;;;;57.60;25.85;;;;;;;0.29;100.00;100079.81;2577715;55;20101;-69
2021/01/23 11:39:48;;;;;;;61.60;27.75;;;;;;;0.30;100.00;100084.16;2577814;55;20114;-69
2021/01/23 11:42:16;;;;;;;56.03;25.62;;;;;;;0.33;100.00;100078.78;2577156;55;20124;-69
2021/01/23 11:44:45;;;;;;;60.90;29.12;;;;;;;0.33;100.00;100091.03;2577705;55;20134;-68
2021/01/23 11:47:13;;;;;;;60.70;25.48;;;;;;;0.34;100.00;100097.97;2577440;55;20124;-68
2021/01/23 11:49:41;;;;;;;65.90;29.70;;;;;;;0.34;100.00;100096.22;2572418;55;20116;-68
2021/01/23 11:52:08;;;;;;;61.58;29.25;;;;;;;0.32;100.00;100097.19;2577597;55;20121;-69
2021/01/23 11:54:36;;;;;;;72.65;32.85;;;;;;;0.29;100.00;100106.03;2577370;55;20141;-68
2021/01/23 11:57:06;;;;;;;76.53;31.40;;;;;;;0.30;100.00;100097.28;2577051;55;20622;-69
2021/01/23 11:59:34;;;;;;;61.40;26.33;;;;;;;0.29;100.00;100111.28;2577709;55;20648;-69
2021/01/23 12:02:03;;;;;;;64.65;27.10;;;;;;;0.29;100.00;100111.28;2577382;55;20131;-69
2021/01/23 12:04:31;;;;;;;64.37;27.95;;;;;;;0.28;100.00;100109.59;2577604;55;20500;-68
2021/01/23 12:06:59;;;;;;;67.85;33.90;;;;;;;0.26;100.00;100106.19;2577423;55;20135;-69
2021/01/23 12:09:27;;;;;;;61.53;28.83;;;;;;;0.30;100.00;100123.53;2577547;55;20633;-69
2021/01/23 12:11:55;;;;;;;70.32;28.58;;;;;;;0.24;100.00;100118.53;2577428;55;20142;-69
2021/01/23 12:14:23;;;;;;;57.65;25.62;;;;;;;0.23;100.00;100116.81;2577591;55;20399;-69
2021/01/23 12:16:50;;;;;;;62.50;26.23;;;;;;;0.24;100.00;100113.28;2577269;55;20604;-69
2021/01/23 12:19:20;;;;;;;60.80;26.90;;;;;;;0.22;100.00;100115.13;2577511;55;20805;-69
2021/01/23 12:21:48;;;;;;;59.97;25.60;;;;;;;0.20;100.00;100119.53;2577317;55;20500;-69
2021/01/23 12:24:16;;;;;;;57.25;24.15;;;;;;;0.21;100.00;100118.66;2577292;55;20120;-69
2021/01/23 12:26:44;;;;;;;65.20;28.17;;;;;;;0.22;100.00;100123.81;2577199;55;20660;-68
2021/01/23 12:29:11;;;;;;;76.10;37.00;;;;;;;0.23;100.00;100137.81;2577823;55;20117;-68
2021/01/23 12:31:39;;;;;;;56.20;27.13;;;;;;;0.22;100.00;100130.84;2577576;55;20163;-68
2021/01/23 12:34:07;;;;;;;57.22;27.42;;;;;;;0.19;100.00;100139.69;2577561;55;20488;-68
2021/01/23 12:36:35;;;;;;;58.40;29.23;;;;;;;0.22;100.00;100136.09;2577144;55;20143;-69
2021/01/23 12:39:04;;;;;;;64.60;29.55;;;;;;;0.19;100.00;100138.84;2577942;55;20637;-69
2021/01/23 12:41:31;;;;;;;67.90;32.60;;;;;;;0.21;100.00;100139.66;2577145;55;20117;-67
2021/01/23 12:43:59;;;;;;;78.60;35.55;;;;;;;0.18;100.00;100145.00;2577659;55;20132;-68
2021/01/23 12:46:26;;;;;;;62.72;31.75;;;;;;;0.21;100.00;100145.72;2577398;55;20174;-67
2021/01/23 12:48:54;;;;;;;54.00;25.55;;;;;;;0.22;100.00;100152.69;2577448;55;20717;-69
2021/01/23 12:51:22;;;;;;;57.25;26.48;;;;;;;0.20;100.00;100145.78;2576989;55;20110;-68
2021/01/23 12:53:50;;;;;;;52.80;24.27;;;;;;;0.23;100.00;100153.56;2577800;55;20144;-68
2021/01/23 12:56:18;;;;;;;54.78;28.15;;;;;;;0.19;100.00;100141.47;2576799;55;20643;-68
2021/01/23 12:58:46;;;;;;;62.40;29.00;;;;;;;0.18;100.00;100153.75;2577169;55;20117;-68
2021/01/23 13:01:13;;;;;;;62.03;29.25;;;;;;;0.18;100.00;100153.75;2577384;55;20140;-69
2021/01/23 13:03:41;;;;;;;60.58;28.58;;;;;;;0.19;100.00;100146.72;2576955;55;20118;-69
2021/01/23 13:06:09;;;;;;;56.40;25.98;;;;;;;0.18;100.00;100158.13;2577137;55;20139;-68
2021/01/23 13:08:37;;;;;;;56.03;28.20;;;;;;;0.19;100.00;100157.19;2577390;55;20113;-69
2021/01/23 13:11:06;;;;;;;60.38;27.62;;;;;;;0.18;100.00;100158.13;2576836;55;20125;-69
2021/01/23 13:13:33;;;;;;;68.68;33.03;;;;;;;0.21;100.00;100163.25;2577354;55;20611;-68
2021/01/23 13:16:01;;;;;;;59.17;30.52;;;;;;;0.19;100.00;100165.06;2577184;55;20113;-68
2021/01/23 13:18:29;;;;;;;68.22;32.97;;;;;;;0.19;100.00;100162.44;2577292;55;20682;-69
2021/01/23 13:20:56;;;;;;;71.70;32.13;;;;;;;0.17;100.00;100172.16;2577184;55;20105;-69
2021/01/23 13:23:24;;;;;;;64.15;29.35;;;;;;;0.14;100.00;100160.00;2577509;55;20112;-68
2021/01/23 13:25:52;;;;;;;64.80;31.80;;;;;;;0.16;100.00;100163.44;2576987;55;20121;-69
2021/01/23 13:28:20;;;;;;;56.33;26.75;;;;;;;0.13;100.00;100172.28;2577478;55;20675;-68
2021/01/23 13:30:48;;;;;;;62.28;28.42;;;;;;;0.12;100.00;100172.34;2577181;55;20520;-69
2021/01/23 13:33:16;;;;;;;57.92;28.30;;;;;;;0.13;100.00;100182.78;2576936;55;20504;-68
2021/01/23 13:35:43;;;;;;;55.42;27.23;;;;;;;0.14;100.00;100186.25;2576958;55;20120;-69
2021/01/23 13:38:11;;;;;;;54.63;26.83;;;;;;;0.11;100.00;100182.00;2577591;55;20110;-68
2021/01/23 13:40:39;;;;;;;60.75;27.92;;;;;;;0.13;100.00;100187.16;2577020;55;20116;-68
2021/01/23 13:43:07;;;;;;;65.20;32.65;;;;;;;0.12;100.00;100196.81;2577172;55;20132;-69
2021/01/23 13:45:35;;;;;;;62.00;30.67;;;;;;;0.11;100.00;100189.87;2576989;55;20474;-69
2021/01/23 13:48:04;;;;;;;58.63;31.20;;;;;;;0.09;100.00;100189.06;2576680;55;20628;-68
2021/01/23 13:50:32;;;;;;;60.63;30.10;;;;;;;0.10;100.00;100193.41;2574660;55;20516;-68
2021/01/23 13:53:00;;;;;;;47.67;27.60;;;;;;;0.08;100.00;100195.22;2577213;55;20125;-69
2021/01/23 13:55:27;;;;;;;53.42;26.98;;;;;;;0.08;100.00;100197.84;2572301;55;20116;-68
2021/01/23 13:57:55;;;;;;;50.00;24.83;;;;;;;0.09;100.00;100209.22;2577330;55;20127;-68
2021/01/23 14:00:23;;;;;;;52.80;24.90;;;;;;;0.05;100.00;100202.34;2577184;55;20128;-69
2021/01/23 14:02:52;;;;;;;50.50;23.62;;;;;;;0.06;100.00;100207.56;2575122;55;20117;-69
2021/01/23 14:05:20;;;;;;;51.33;24.83;;;;;;;0.03;100.00;100205.06;2572192;55;20512;-69
2021/01/23 14:07:47;;;;;;;48.28;23.85;;;;;;;0.05;100.00;100211.09;2573719;55;20532;-68
2021/01/23 14:10:15;;;;;;;47.70;22.23;;;;;;;0.09;100.00;100204.78;2577137;55;20125;-68
2021/01/23 14:12:43;;;;;;;40.92;22.23;;;;;;;0.09;100.00;100212.66;2577000;55;20117;-68
2021/01/23 14:15:11;;;;;;;45.03;21.98;;;;;;;0.05;100.00;100208.47;2577116;55;20612;-69
2021/01/23 14:17:39;;;;;;;43.87;23.70;;;;;;;0.06;100.00;100215.41;2577366;55;20113;-68
2021/01/23 14:20:09;;;;;;;43.45;23.20;;;;;;;0.06;100.00;100212.78;2577931;55;20505;-69
2021/01/23 14:22:37;;;;;;;41.67;22.60;;;;;;;0.07;100.00;100214.50;2577644;55;20122;-67
2021/01/23 14:25:06;;;;;;;52.97;25.83;;;;;;;0.09;100.00;100217.06;2570944;55;20121;-69
2021/01/23 14:27:33;;;;;;;51.05;26.77;;;;;;;-0.01;100.00;100206.06;2569873;55;20128;-67
2021/01/23 14:30:01;;;;;;;51.72;27.42;;;;;;;0.09;100.00;100225.78;2570663;55;20642;-70
2021/01/23 14:32:29;;;;;;;53.00;28.25;;;;;;;0.11;100.00;100223.13;2570164;55;20155;-69
2021/01/23 14:34:57;;;;;;;51.22;26.95;;;;;;;0.11;100.00;100218.72;2570106;55;20109;-68
2021/01/23 14:37:26;;;;;;;52.05;27.75;;;;;;;0.08;100.00;100224.06;2569779;55;20121;-69
2021/01/23 14:39:54;;;;;;;52.30;27.50;;;;;;;0.09;100.00;100225.78;2570312;55;20643;-67
2021/01/23 14:42:22;;;;;;;46.35;25.70;;;;;;;0.10;100.00;100232.78;2570010;55;20110;-68
2021/01/23 14:44:49;;;;;;;48.72;25.90;;;;;;;0.08;100.00;100229.31;2573069;55;20172;-69
2021/01/23 14:47:17;;;;;;;51.22;26.33;;;;;;;0.08;100.00;100231.94;2569798;55;20751;-69
2021/01/23 14:49:45;;;;;;;46.97;24.12;;;;;;;0.07;100.00;100232.88;2570170;55;20128;-69
2021/01/23 14:52:12;;;;;;;44.50;24.50;;;;;;;0.06;100.00;100236.41;2569986;55;20181;-69
2021/01/23 14:54:41;;;;;;;41.47;23.50;;;;;;;0.06;100.00;100239.03;2570484;55;20657;-69
2021/01/23 14:57:09;;;;;;;49.78;26.60;;;;;;;0.05;100.00;100234.69;2565146;55;20161;-68
2021/01/23 14:59:36;;;;;;;52.38;26.33;;;;;;;0.06;100.00;100239.03;2570355;55;20114;-69
2021/01/23 15:02:04;;;;;;;56.65;29.75;;;;;;;0.04;100.00;100238.25;2570015;55;20106;-71
2021/01/23 15:04:32;;;;;;;72.62;38.95;;;;;;;0.03;100.00;100246.16;2572278;55;20389;-68
2021/01/23 15:07:00;;;;;;;52.20;27.70;;;;;;;0.02;100.00;100247.94;2575073;55;20516;-69
2021/01/23 15:09:29;;;;;;;45.85;24.42;;;;;;;0.05;100.00;100245.19;2574954;55;20117;-67
2021/01/23 15:11:57;;;;;;;48.85;26.00;;;;;;;0.06;100.00;100262.66;2575149;55;20144;-67
2021/01/23 15:14:25;;;;;;;47.53;24.55;;;;;;;0.03;100.00;100249.66;2575248;55;20125;-69
2021/01/23 15:16:53;;;;;;;46.90;24.17;;;;;;;0.02;100.00;100257.56;2572616;55;20785;-67
2021/01/23 15:19:21;;;;;;;46.72;23.35;;;;;;;0.06;100.00;100253.94;2570287;55;20133;-67
2021/01/23 15:21:48;;;;;;;38.85;21.87;;;;;;;0.01;100.00;100254.13;2569369;55;20277;-68
2021/01/23 15:24:16;;;;;;;39.63;22.70;;;;;;;0.02;100.00;100253.19;2574240;55;20120;-68
2021/01/23 15:26:44;;;;;;;46.95;24.25;;;;;;;0.02;100.00;100255.81;2576506;55;20125;-67
2021/01/23 15:29:12;;;;;;;43.58;23.27;;;;;;;0.02;100.00;100255.81;2576899;55;20119;-67
2021/01/23 15:31:41;;;;;;;44.03;22.75;;;;;;;0.00;100.00;100257.66;2577897;55;20135;-67
2021/01/23 15:34:09;;;;;;;45.08;24.45;;;;;;;0.01;100.00;100259.34;2580958;55;20214;-67
2021/01/23 15:36:36;;;;;;;43.87;23.27;;;;;;;0.01;100.00;100261.13;2579603;55;20516;-67
2021/01/23 15:39:07;;;;;;;43.38;23.58;;;;;;;0.02;100.00;100268.94;2578413;55;20130;-67
2021/01/23 15:41:35;;;;;;;42.62;22.50;;;;;;;0.01;100.00;100275.09;2578425;55;20130;-67
2021/01/23 15:44:03;;;;;;;40.70;23.20;;;;;;;0.01;100.00;100269.84;2578674;55;20125;-68
2021/01/23 15:46:32;;;;;;;44.05;22.58;;;;;;;0.01;100.00;100280.34;2578359;55;20127;-67
2021/01/23 15:49:00;;;;;;;41.50;21.15;;;;;;;0.03;100.00;100273.25;2577220;55;20200;-67
2021/01/23 15:51:27;;;;;;;39.20;21.55;;;;;;;0.04;100.00;100274.97;2577523;55;20129;-67
2021/01/23 15:53:55;;;;;;;39.95;20.88;;;;;;;0.02;100.00;100292.53;2566688;55;20175;-68
2021/01/23 15:56:23;;;;;;;39.85;22.65;;;;;;;-0.01;100.00;100282.16;2573523;55;20497;-68
2021/01/23 15:58:51;;;;;;;41.28;23.10;;;;;;;-0.03;100.00;100281.34;2572919;55;20753;-68
2021/01/23 16:01:20;;;;;;;38.70;22.27;;;;;;;-0.02;100.00;100280.44;2572489;55;20128;-68
2021/01/23 16:03:49;;;;;;;38.17;21.42;;;;;;;0.04;100.00;100288.09;2572788;55;20152;-67
2021/01/23 16:06:16;;;;;;;43.08;22.92;;;;;;;0.03;100.00;100280.25;2574975;55;20640;-67
2021/01/23 16:08:44;;;;;;;42.47;22.37;;;;;;;0.02;100.00;100281.19;2573325;55;20117;-67
2021/01/23 16:11:12;;;;;;;48.25;22.23;;;;;;;0.02;100.00;100274.19;2573428;55;20105;-68
2021/01/23 16:13:40;;;;;;;40.53;22.50;;;;;;;0.03;100.00;100286.38;2573573;55;20160;-68
2021/01/23 16:16:08;;;;;;;47.38;22.58;;;;;;;0.05;100.00;100276.69;2574553;55;20131;-68
2021/01/23 16:18:37;;;;;;;44.47;22.77;;;;;;;0.04;100.00;100274.97;2571963;55;20608;-68
2021/01/23 16:21:06;;;;;;;42.45;21.15;;;;;;;0.06;100.00;100288.88;2574174;55;20189;-69
2021/01/23 16:23:33;;;;;;;37.50;20.62;;;;;;;0.02;100.00;100276.81;2575758;55;20117;-68
2021/01/23 16:26:01;;;;;;;43.78;22.90;;;;;;;0.05;100.00;100276.69;2574289;55;20117;-68
2021/01/23 16:28:28;;;;;;;42.95;22.27;;;;;;;0.01;100.00;100280.34;2574535;55;20125;-69
2021/01/23 16:30:56;;;;;;;42.85;22.87;;;;;;;0.03;100.00;100283.75;2576492;55;20125;-69
2021/01/23 16:33:24;;;;;;;40.95;22.62;;;;;;;0.03;100.00;100283.75;2576164;55;20113;-68
2021/01/23 16:35:51;;;;;;;39.08;21.23;;;;;;;0.01;100.00;100289.97;2573394;55;20121;-68
2021/01/23 16:38:20;;;;;;;40.42;20.30;;;;;;;0.00;100.00;100289.13;2574885;55;20117;-68
2021/01/23 16:40:48;;;;;;;36.47;19.73;;;;;;;0.01;100.00;100290.84;2575168;55;20121;-67
2021/01/23 16:43:15;;;;;;;36.63;20.50;;;;;;;0.00;100.00;100294.37;2576192;55;20174;-67
2021/01/23 16:45:43;;;;;;;37.00;20.37;;;;;;;-0.02;100.00;100301.41;2576709;55;20156;-67
2021/01/23 16:48:11;;;;;;;42.60;21.80;;;;;;;-0.02;100.00;100307.53;2572367;55;20121;-67
2021/01/23 16:50:39;;;;;;;40.95;20.73;;;;;;;-0.02;100.00;100297.03;2571498;55;20508;-67
2021/01/23 16:53:06;;;;;;;43.45;21.20;;;;;;;-0.04;100.00;100293.63;2575737;55;20119;-67
2021/01/23 16:55:35;;;;;;;42.25;22.10;;;;;;;-0.01;100.00;100303.12;2577932;55;20129;-67
2021/01/23 16:58:03;;;;;;;42.53;22.75;;;;;;;-0.02;100.00;100311.91;2574004;55;20516;-67
2021/01/23 17:00:31;;;;;;;36.70;18.45;;;;;;;-0.03;100.00;100307.59;2575423;55;20123;-67
2021/01/23 17:02:59;;;;;;;39.03;18.98;;;;;;;0.00;100.00;100315.37;2577143;55;20133;-66
2021/01/23 17:05:26;;;;;;;44.40;21.85;;;;;;;-0.03;100.00;100318.94;2577379;55;20117;-66
2021/01/23 17:07:54;;;;;;;43.22;22.48;;;;;;;-0.01;100.00;100308.37;2576941;55;20121;-66
2021/01/23 17:10:22;;;;;;;45.12;23.50;;;;;;;-0.04;100.00;100312.00;2575623;55;20124;-66